Time;durP1;ratioP1;P1;durP2;ratioP2;P2;SDS_P1;SDS_P2;PMS_P1;PMS_P2;Temp;Humidity;BMP_temperature;BMP_pressure;BME280_temperature;BME280_humidity;BME280_pressure;Samples;Min_cycle;Max_cycle;Signal;HPM_P1;HPM_P2
2023/02/10 06:54:06;;;;;;;;;35.75;32.75;;;;;17.73;39.19;103526.06;5124461;27;45881;-79
2023/02/10 06:56:32;;;;;;;;;42.75;35.25;;;;;18.08;39.66;103530.94;5102840;27;45383;-75
2023/02/10 06:58:57;;;;;;;;;34.25;33.00;;;;;18.60;39.88;103526.94;5116139;27;45560;-77
2023/02/10 07:01:22;;;;;;;;;32.50;29.75;;;;;19.16;40.02;103518.22;5121942;27;52943;-76
2023/02/10 07:03:48;;;;;;;;;33.50;31.50;;;;;19.75;39.73;103526.22;5117606;27;47599;-76
2023/02/10 07:06:13;;;;;;;;;32.75;31.50;;;;;20.26;39.85;103533.59;5113427;27;45462;-74
2023/02/10 07:08:39;;;;;;;;;34.25;31.00;;;;;20.71;39.30;103531.25;5112517;27;45409;-78
2023/02/10 07:11:04;;;;;;;;;28.75;28.00;;;;;21.12;38.93;103531.81;5120782;27;48611;-76
2023/02/10 07:13:29;;;;;;;;;39.75;32.00;;;;;21.48;38.77;103536.13;5110548;27;46108;-79
2023/02/10 07:15:55;;;;;;;;;31.25;29.75;;;;;21.80;38.34;103535.28;5111563;27;45360;-78
2023/02/10 07:18:20;;;;;;;;;35.00;31.75;;;;;22.08;38.85;103555.28;5111521;27;45439;-78
2023/02/10 07:20:45;;;;;;;;;32.75;31.75;;;;;22.31;38.25;103542.25;5110298;27;45699;-78
2023/02/10 07:23:11;;;;;;;;;34.25;31.25;;;;;22.51;38.21;103543.72;5111742;27;45397;-76
2023/02/10 07:25:36;;;;;;;;;34.75;32.50;;;;;22.70;37.90;103545.31;5110936;27;45350;-75
2023/02/10 07:28:01;;;;;;;;;34.00;29.75;;;;;22.85;38.04;103552.47;5111608;27;45304;-82
2023/02/10 07:30:27;;;;;;;;;31.75;31.25;;;;;23.03;37.42;103552.31;5111245;27;45469;-80
2023/02/10 07:32:52;;;;;;;;;36.75;31.25;;;;;23.21;37.75;103554.81;5111475;27;46029;-79
2023/02/10 07:35:18;;;;;;;;;32.00;29.25;;;;;23.34;37.56;103553.06;5111334;27;45454;-82
2023/02/10 07:37:43;;;;;;;;;33.50;29.25;;;;;23.47;37.21;103549.56;5107561;27;45437;-81
2023/02/10 07:40:09;;;;;;;;;29.75;28.00;;;;;23.54;37.29;103561.75;5105455;27;45698;-83
2023/02/10 07:42:35;;;;;;;;;31.50;30.75;;;;;23.61;37.00;103551.34;5116662;27;45450;-83
2023/02/10 07:45:01;;;;;;;;;33.50;30.25;;;;;23.67;36.71;103551.81;5118118;27;45419;-85
2023/02/10 07:47:26;;;;;;;;;32.00;31.25;;;;;23.72;36.71;103547.94;5123776;27;45841;-82
2023/02/10 07:49:53;;;;;;;;;36.50;31.25;;;;;23.80;36.21;103557.31;5108556;27;45506;-76
2023/02/10 07:52:19;;;;;;;;;34.50;31.00;;;;;23.84;36.71;103557.09;5108592;27;46195;-80
2023/02/10 07:54:45;;;;;;;;;35.00;33.25;;;;;23.88;36.20;103572.22;5107569;27;45789;-81
2023/02/10 07:57:10;;;;;;;;;32.75;30.75;;;;;23.93;36.22;103579.06;5124475;27;45400;-85
2023/02/10 07:59:35;;;;;;;;;30.75;29.75;;;;;24.01;35.99;103577.69;5109610;27;47522;-83
2023/02/10 08:02:01;;;;;;;;;36.00;27.75;;;;;24.07;35.72;103585.38;5101306;27;47094;-79
2023/02/10 08:04:26;;;;;;;;;32.00;29.25;;;;;24.10;36.03;103585.22;5101627;27;45840;-81
2023/02/10 08:06:52;;;;;;;;;27.00;25.50;;;;;24.09;35.71;103569.94;5093060;27;45449;-80
2023/02/10 08:09:17;;;;;;;;;33.25;27.25;;;;;24.10;35.86;103582.50;5083128;27;47363;-78
2023/02/10 08:11:43;;;;;;;;;33.00;28.75;;;;;24.11;35.60;103596.97;5090808;27;46139;-83
2023/02/10 08:14:08;;;;;;;;;31.50;26.25;;;;;24.17;35.97;103601.97;5095206;27;45509;-80
2023/02/10 08:16:33;;;;;;;;;28.25;26.50;;;;;24.19;35.63;103589.16;5096787;27;45765;-82
2023/02/10 08:18:59;;;;;;;;;30.75;28.00;;;;;24.22;35.55;103588.94;5092088;27;45746;-81
2023/02/10 08:21:26;;;;;;;;;29.75;26.00;;;;;24.25;35.56;103596.91;5089454;27;45875;-85
2023/02/10 08:23:54;;;;;;;;;32.75;30.00;;;;;24.28;35.37;103587.66;5093270;27;45823;-85
2023/02/10 08:26:21;;;;;;;;;34.25;29.50;;;;;24.31;35.58;103584.72;5095649;27;45499;-89
2023/02/10 08:28:46;;;;;;;;;28.50;27.25;;;;;24.34;35.62;103603.53;5096139;27;45445;-90
2023/02/10 08:31:11;;;;;;;;;34.25;30.25;;;;;24.33;35.50;103597.22;5094464;27;45382;-78
2023/02/10 08:33:37;;;;;;;;;4.50;2.00;;;;;24.33;35.57;103594.50;5094998;27;51932;-76
2023/02/10 08:36:05;;;;;;;;;32.25;30.00;;;;;24.37;35.31;103607.88;5095252;27;45492;-76
2023/02/10 08:38:31;;;;;;;;;28.50;24.00;;;;;24.37;35.22;103616.91;5094094;27;45493;-76
2023/02/10 08:40:57;;;;;;;;;27.75;27.00;;;;;24.38;35.17;103624.06;5094579;27;45483;-86
2023/02/10 08:43:24;;;;;;;;;26.50;26.00;;;;;24.39;35.21;103628.50;5108806;27;45762;-84
2023/02/10 08:45:50;;;;;;;;;29.25;27.50;;;;;24.39;35.08;103606.78;5091936;27;45456;-85
2023/02/10 08:48:15;;;;;;;;;25.75;25.00;;;;;24.45;35.37;103610.94;5094696;27;45479;-81
2023/02/10 08:50:41;;;;;;;;;24.00;22.25;;;;;24.47;35.03;103617.13;5089865;27;46148;-83
2023/02/10 08:53:06;;;;;;;;;26.50;24.25;;;;;24.49;35.09;103626.06;5075239;27;45424;-86
2023/02/10 08:55:31;;;;;;;;;25.75;24.50;;;;;24.48;35.16;103625.16;5101588;27;45666;-87
2023/02/10 08:57:57;;;;;;;;;23.50;23.50;;;;;24.52;35.28;103622.25;5094354;27;45898;-76
2023/02/10 09:00:23;;;;;;;;;28.00;26.75;;;;;24.52;34.95;103628.53;5093766;27;45449;-81
2023/02/10 09:02:49;;;;;;;;;26.25;24.50;;;;;24.53;34.97;103630.31;5077551;27;45545;-80
2023/02/10 09:05:15;;;;;;;;;26.75;24.50;;;;;24.54;35.02;103626.59;5086401;27;45425;-87
2023/02/10 09:07:40;;;;;;;;;26.25;26.25;;;;;24.57;34.92;103617.38;5095175;27;45896;-81
2023/02/10 09:10:10;;;;;;;;;25.50;24.75;;;;;24.57;35.14;103612.78;5097546;27;46173;-81
2023/02/10 09:12:35;;;;;;;;;25.50;25.50;;;;;24.56;34.89;103623.78;5101890;27;45800;-81
2023/02/10 09:15:01;;;;;;;;;27.00;25.50;;;;;24.51;34.39;103621.38;5090014;27;45688;-81
2023/02/10 09:17:26;;;;;;;;;26.00;25.00;;;;;24.54;34.66;103629.31;5096741;27;45680;-82
2023/02/10 09:19:51;;;;;;;;;23.00;22.50;;;;;24.53;34.66;103621.28;5094182;27;45453;-81
2023/02/10 09:22:17;;;;;;;;;28.50;24.25;;;;;24.53;34.66;103629.41;5084337;27;46131;-81
2023/02/10 09:24:46;;;;;;;;;28.00;26.50;;;;;24.54;34.60;103625.72;5080626;27;45783;-80
2023/02/10 09:27:12;;;;;;;;;30.50;28.75;;;;;24.55;34.32;103614.75;5082451;27;47478;-82
2023/02/10 09:29:37;;;;;;;;;22.75;21.50;;;;;24.55;34.53;103609.31;5083023;27;45406;-90
2023/02/10 09:32:03;;;;;;;;;22.75;22.25;;;;;24.55;34.53;103611.16;5096137;27;45339;-89
2023/02/10 09:34:29;;;;;;;;;29.25;26.50;;;;;24.53;34.29;103613.13;5106246;27;45374;-89
2023/02/10 09:36:57;;;;;;;;;27.25;24.50;;;;;24.53;34.34;103610.41;5102854;27;45318;-85
2023/02/10 09:39:25;;;;;;;;;27.00;24.50;;;;;24.51;34.40;103612.34;5086475;27;45704;-78
2023/02/10 09:42:01;;;;;;;;;19.50;19.25;;;;;24.51;34.45;103615.06;5089216;27;45443;-81
2023/02/10 09:44:30;;;;;;;;;24.25;21.50;;;;;24.47;34.11;103614.41;5088450;27;45499;-81
2023/02/10 09:47:38;;;;;;;;;27.75;22.00;;;;;24.47;34.43;103614.41;5091233;27;45522;-81
2023/02/10 09:50:22;;;;;;;;;24.75;23.25;;;;;24.45;34.05;103608.22;5084121;27;46372;-80
2023/02/10 09:53:10;;;;;;;;;26.25;25.25;;;;;24.45;34.26;103616.38;5094272;27;45597;-79
2023/02/10 09:55:43;;;;;;;;;24.00;23.00;;;;;24.40;34.16;103604.97;5075598;27;45527;-77
2023/02/10 09:58:29;;;;;;;;;24.00;21.50;;;;;24.45;34.15;103619.09;5076017;27;45756;-76
2023/02/10 10:01:01;;;;;;;;;24.75;21.75;;;;;24.45;34.47;103616.38;5091949;27;46423;-78
2023/02/10 10:03:42;;;;;;;;;21.00;18.00;;;;;24.45;34.28;103617.22;5086325;27;45963;-75
2023/02/10 10:06:25;;;;;;;;;24.75;22.50;;;;;24.45;34.16;103619.94;5088320;27;45422;-79
2023/02/10 10:09:04;;;;;;;;;23.75;23.25;;;;;24.47;34.33;103618.00;5092767;27;45453;-87
2023/02/10 10:11:43;;;;;;;;;24.75;22.75;;;;;24.50;34.28;103616.94;5094406;27;45345;-84
2023/02/10 10:14:36;;;;;;;;;23.50;21.75;;;;;24.51;34.45;103626.81;5082728;27;45790;-88
2023/02/10 10:17:45;;;;;;;;;18.00;18.00;;;;;24.53;34.20;103632.13;5092821;27;46902;-86
2023/02/10 10:20:32;;;;;;;;;28.25;24.50;;;;;24.54;34.14;103623.88;5093853;27;45387;-82
2023/02/10 10:23:22;;;;;;;;;23.50;22.75;;;;;24.53;34.23;103630.31;5082458;27;46521;-89
2023/02/10 10:25:53;;;;;;;;;22.50;22.50;;;;;24.53;34.18;103624.88;5102151;27;46281;-92
2023/02/10 10:28:31;;;;;;;;;21.25;20.50;;;;;24.55;34.25;103622.03;5099137;27;45366;-93
2023/02/10 10:31:14;;;;;;;;;25.00;22.00;;;;;24.58;34.39;103624.53;5092758;27;45517;-87
2023/02/10 10:34:08;;;;;;;;;24.75;23.00;;;;;24.61;34.02;103616.19;5097506;27;45669;-84
2023/02/10 10:36:36;;;;;;;;;24.50;22.75;;;;;24.60;34.12;103626.16;5089369;27;45450;-81
2023/02/10 10:39:14;;;;;;;;;28.75;26.75;;;;;24.59;34.07;103612.69;5077150;27;45384;-82
2023/02/10 10:41:40;;;;;;;;;25.00;23.25;;;;;24.67;34.12;103629.34;5094072;27;45505;-87
2023/02/10 10:44:09;;;;;;;;;26.75;25.00;;;;;24.76;33.90;103632.41;5093674;27;45557;-83
2023/02/10 10:46:42;;;;;;;;;23.25;23.25;;;;;24.82;34.22;103627.41;5093564;27;45456;-85
2023/02/10 10:49:07;;;;;;;;;23.50;21.75;;;;;24.88;33.80;103626.13;5088796;27;45600;-80
2023/02/10 10:51:34;;;;;;;;;25.00;25.00;;;;;24.96;34.26;103623.72;5087494;27;45447;-76
2023/02/10 10:54:00;;;;;;;;;25.00;23.75;;;;;25.10;33.97;103628.16;5091031;27;46188;-80
2023/02/10 10:56:50;;;;;;;;;27.25;23.50;;;;;25.20;33.64;103630.22;5092609;27;45492;-85
2023/02/10 10:59:18;;;;;;;;;18.75;18.00;;;;;25.27;33.91;103626.09;5083921;27;45885;-84
2023/02/10 11:01:46;;;;;;;;;19.67;17.00;;;;;25.33;33.89;103622.06;5093500;27;45464;-90
2023/02/10 11:04:17;;;;;;;;;19.25;19.25;;;;;25.38;33.80;103622.63;5077224;27;45435;-88
2023/02/10 11:06:48;;;;;;;;;21.67;21.67;;;;;25.41;33.86;103622.38;5082234;27;45343;-89
2023/02/10 11:09:23;;;;;;;;;25.50;20.00;;;;;25.46;33.84;103620.19;5073416;27;45534;-89
2023/02/10 11:11:50;;;;;;;;;22.75;18.25;;;;;25.47;33.97;103611.03;5091157;27;45441;-86
2023/02/10 11:14:26;;;;;;;;;18.33;17.67;;;;;25.49;33.64;103617.25;5092715;27;47435;-82
2023/02/10 11:17:00;;;;;;;;;17.33;17.33;;;;;25.52;33.70;103616.16;5089892;27;45774;-89
2023/02/10 11:19:28;;;;;;;;;20.33;18.67;;;;;25.50;33.64;103618.13;5089859;27;45498;-84
2023/02/10 11:21:54;;;;;;;;;21.00;17.00;;;;;25.51;33.50;103609.00;5081073;27;45248;-75
2023/02/10 11:24:26;;;;;;;;;22.33;20.00;;;;;25.55;33.66;103615.97;5094575;27;45563;-90
2023/02/10 11:27:04;;;;;;;;;18.67;17.00;;;;;25.60;33.91;103602.03;5092968;27;45427;-85
2023/02/10 11:29:39;;;;;;;;;22.00;19.00;;;;;25.63;33.38;103599.94;5099619;27;45391;-82
2023/02/10 11:32:04;;;;;;;;;18.67;16.67;;;;;25.72;33.61;103598.41;5083638;27;45833;-79
2023/02/10 11:34:48;;;;;;;;;19.67;18.00;;;;;25.79;33.80;103602.38;5086468;27;46488;-79
2023/02/10 11:37:28;;;;;;;;;18.33;18.00;;;;;25.86;33.85;103591.91;5086276;27;45461;-80
2023/02/10 11:39:56;;;;;;;;;19.00;17.67;;;;;25.87;33.49;103582.75;5094527;27;45462;-80
2023/02/10 11:42:23;;;;;;;;;19.00;17.00;;;;;25.90;33.63;103587.09;5096898;27;45523;-80
2023/02/10 11:44:54;;;;;;;;;15.33;15.33;;;;;25.89;33.34;103583.53;5091267;27;46331;-79
2023/02/10 11:47:20;;;;;;;;;22.33;19.33;;;;;25.90;33.42;103588.00;5097326;27;45464;-78
2023/02/10 11:49:49;;;;;;;;;24.00;23.33;;;;;25.88;33.18;103589.94;5092250;27;45340;-79
2023/02/10 11:52:16;;;;;;;;;21.67;21.67;;;;;25.85;33.10;103590.19;5096952;27;45374;-78
2023/02/10 11:54:43;;;;;;;;;23.50;20.00;;;;;25.81;33.10;103585.06;5097685;27;45556;-79
2023/02/10 12:00:27;;;;;;;;;20.75;20.25;;;;;25.57;32.95;103562.34;5093076;27;45340;-79
2023/02/10 12:03:20;;;;;;;;;23.67;22.00;;;;;25.69;32.83;103593.19;5094832;27;45385;-78
2023/02/10 12:06:03;;;;;;;;;20.75;20.25;;;;;25.60;32.76;103583.00;5091031;27;45484;-79
2023/02/10 12:08:44;;;;;;;;;18.00;17.33;;;;;25.52;32.68;103583.53;5089194;27;45683;-79
2023/02/10 12:11:29;;;;;;;;;24.00;20.00;;;;;25.46;32.96;103584.00;5082068;27;45692;-78
2023/02/10 12:14:14;;;;;;;;;20.33;20.00;;;;;25.41;32.75;103591.63;5094351;27;45381;-77
2023/02/10 12:17:26;;;;;;;;;24.67;22.00;;;;;25.39;32.72;103586.28;5090999;27;46235;-77
2023/02/10 12:20:13;;;;;;;;;20.67;18.67;;;;;25.37;32.85;103580.97;5032520;28;45504;-77
2023/02/10 12:23:03;;;;;;;;;23.50;22.25;;;;;25.34;32.62;103572.16;5028124;28;45568;-77
2023/02/10 12:26:04;;;;;;;;;19.00;19.00;;;;;25.31;32.70;103572.38;5025168;28;45589;-82
2023/02/10 12:28:54;;;;;;;;;22.50;22.25;;;;;25.30;32.62;103566.06;5025268;28;45760;-82
2023/02/10 12:31:40;;;;;;;;;20.25;18.50;;;;;25.31;32.67;103575.09;5030851;28;45599;-82
2023/02/10 12:34:54;;;;;;;;;19.00;17.67;;;;;25.35;32.68;103582.06;5016628;28;45454;-83
2023/02/10 12:38:00;;;;;;;;;21.75;20.75;;;;;25.39;32.59;103583.56;5012309;28;45511;-81
2023/02/10 12:40:39;;;;;;;;;20.00;18.33;;;;;25.42;32.58;103571.59;5012437;28;46031;-83
2023/02/10 12:43:13;;;;;;;;;18.67;15.00;;;;;25.42;32.66;103564.28;5025024;28;45611;-82
2023/02/10 12:45:49;;;;;;;;;20.67;18.00;;;;;25.42;32.77;103564.28;5029583;28;47501;-93
2023/02/10 12:48:36;;;;;;;;;14.67;14.67;;;;;25.42;32.70;103558.00;5027291;28;45348;-83
2023/02/10 12:51:18;;;;;;;;;17.67;17.00;;;;;25.42;32.66;103558.00;5034984;28;45781;-75
2023/02/10 12:54:30;;;;;;;;;18.67;14.67;;;;;25.45;32.72;103564.06;5032909;28;45756;-74
2023/02/10 12:57:01;;;;;;;;;23.00;18.33;;;;;25.48;32.75;103565.69;5090678;27;45501;-74
2023/02/10 12:59:34;;;;;;;;;18.00;17.67;;;;;25.51;32.56;103560.03;5085292;27;45553;-75
2023/02/10 13:02:14;;;;;;;;;19.67;18.00;;;;;25.57;32.83;103553.28;5087752;27;45904;-74
2023/02/10 13:04:46;;;;;;;;;19.00;17.00;;;;;25.60;32.69;103548.50;5093216;27;45740;-75
2023/02/10 13:07:34;;;;;;;;;15.67;15.67;;;;;25.64;32.92;103547.31;5090461;27;45647;-74
2023/02/10 13:10:27;;;;;;;;;15.33;15.33;;;;;25.71;32.66;103539.53;5085349;27;45385;-74
2023/02/10 13:12:57;;;;;;;;;15.00;14.33;;;;;25.77;32.74;103539.09;5089294;27;45683;-73
2023/02/10 13:15:37;;;;;;;;;19.00;15.67;;;;;25.79;32.74;103526.22;5084298;27;45757;-74
2023/02/10 13:18:13;;;;;;;;;18.33;16.67;;;;;25.81;32.59;103523.38;5093410;27;45507;-73
2023/02/10 13:20:52;;;;;;;;;17.67;17.67;;;;;25.81;32.89;103527.94;5101095;27;45795;-74
2023/02/10 13:23:17;;;;;;;;;15.33;14.00;;;;;25.79;32.82;103526.22;5083012;27;45687;-73
2023/02/10 13:26:02;;;;;;;;;15.67;15.33;;;;;25.76;32.71;103521.00;5086887;27;45454;-78
2023/02/10 13:28:48;;;;;;;;;15.00;13.33;;;;;25.72;32.51;103516.81;5094679;27;45431;-77
2023/02/10 13:31:51;;;;;;;;;13.00;13.00;;;;;25.73;32.49;103528.53;5088029;27;45786;-77
2023/02/10 13:34:24;;;;;;;;;17.33;15.67;;;;;25.76;32.64;103529.16;5089905;27;45516;-77
2023/02/10 13:36:55;;;;;;;;;17.33;14.00;;;;;25.78;32.77;103527.22;5093342;27;45593;-75
2023/02/10 13:39:25;;;;;;;;;12.00;12.00;;;;;25.83;32.70;103523.28;5090168;27;45517;-79
2023/02/10 13:42:21;;;;;;;;;17.67;15.33;;;;;25.84;32.61;103523.16;5085069;27;45608;-78
2023/02/10 13:44:57;;;;;;;;;13.33;11.67;;;;;25.86;32.66;103531.19;5087468;27;46074;-78
2023/02/10 13:47:26;;;;;;;;;16.67;13.00;;;;;25.87;32.84;103539.22;5109863;27;45456;-78
2023/02/10 13:49:57;;;;;;;;;14.33;14.33;;;;;25.89;32.86;103536.41;5088428;27;45548;-75
2023/02/10 13:52:26;;;;;;;;;16.67;12.00;;;;;25.92;32.89;103531.59;5094529;27;45706;-77
2023/02/10 13:55:00;;;;;;;;;16.67;14.33;;;;;25.97;32.64;103535.81;5090630;27;46275;-75
2023/02/10 13:57:37;;;;;;;;;14.00;12.33;;;;;25.97;32.69;103528.53;5085232;27;45583;-74
2023/02/10 14:00:17;;;;;;;;;13.00;11.33;;;;;26.01;32.43;103518.25;5088884;27;46615;-76
2023/02/10 14:02:45;;;;;;;;;11.00;11.00;;;;;25.99;32.79;103514.81;5092599;27;45627;-73
2023/02/10 14:05:33;;;;;;;;;13.00;12.33;;;;;26.00;32.55;103516.53;5095406;27;45366;-74
2023/02/10 14:07:59;;;;;;;;;14.33;14.33;;;;;25.97;32.26;103512.19;5078875;27;45758;-74
2023/02/10 14:10:26;;;;;;;;;13.67;11.33;;;;;25.99;32.38;103525.69;5084677;27;45431;-81
2023/02/10 14:13:25;;;;;;;;;10.33;10.33;;;;;25.96;32.64;103512.31;5094747;27;45514;-82
2023/02/10 14:16:17;;;;;;;;;14.67;14.00;;;;;25.91;32.52;103516.25;5099134;27;45417;-78
2023/02/10 14:18:45;;;;;;;;;14.33;13.00;;;;;25.89;32.86;103514.63;5066800;27;45444;-80
2023/02/10 14:21:16;;;;;;;;;14.00;13.00;;;;;25.90;32.51;103508.19;5056230;27;45499;-86
2023/02/10 14:23:50;;;;;;;;;13.33;13.33;;;;;25.94;33.06;103498.81;5064761;28;45875;-80
2023/02/10 14:26:21;;;;;;;;;13.00;11.33;;;;;25.96;33.04;103506.88;5063689;27;46477;-79
2023/02/10 14:28:50;;;;;;;;;14.00;12.00;;;;;26.00;32.49;103505.66;5052159;28;45637;-75
2023/02/10 14:31:22;;;;;;;;;15.33;12.67;;;;;26.03;32.94;103500.84;5070969;27;45526;-75
2023/02/10 14:33:56;;;;;;;;;20.00;14.00;;;;;26.02;32.72;103504.53;5061531;27;45511;-76
2023/02/10 14:36:22;;;;;;;;;17.33;12.33;;;;;26.05;32.60;103500.72;5066618;27;45845;-77
2023/02/10 14:38:56;;;;;;;;;15.67;12.33;;;;;26.09;32.43;103506.78;5064818;27;45739;-77
2023/02/10 14:41:23;;;;;;;;;12.67;12.00;;;;;26.09;32.68;103502.22;5075133;27;45532;-77
2023/02/10 14:43:50;;;;;;;;;14.67;14.33;;;;;26.10;33.03;103503.06;5069315;27;45586;-76
2023/02/10 14:46:27;;;;;;;;;14.33;13.33;;;;;26.08;32.56;103488.72;5065883;27;46950;-75
2023/02/10 14:49:09;;;;;;;;;15.67;12.67;;;;;26.11;32.43;103502.97;5056356;27;45655;-75
2023/02/10 14:51:43;;;;;;;;;12.00;11.00;;;;;26.10;32.84;103495.78;5056856;28;45547;-79
2023/02/10 14:54:10;;;;;;;;;14.00;11.00;;;;;26.10;32.85;103490.34;5057512;28;45510;-76
2023/02/10 14:56:35;;;;;;;;;12.33;11.00;;;;;26.08;32.82;103483.28;5075661;27;46996;-76
2023/02/10 14:59:01;;;;;;;;;14.00;13.33;;;;;26.11;32.72;103492.06;5088235;27;45715;-76
2023/02/10 15:01:32;;;;;;;;;13.00;10.67;;;;;26.09;32.89;103495.91;5085829;27;47104;-75
2023/02/10 15:03:58;;;;;;;;;12.00;12.00;;;;;26.07;32.56;103496.00;5093937;27;45390;-75
2023/02/10 15:06:27;;;;;;;;;13.67;12.67;;;;;26.08;32.75;103484.16;5095952;27;45898;-75
2023/02/10 15:09:17;;;;;;;;;16.00;13.67;;;;;26.13;32.95;103486.50;5087667;27;45688;-75
2023/02/10 15:12:11;;;;;;;;;12.00;12.00;;;;;26.16;32.96;103491.72;5084731;27;45412;-74
2023/02/10 15:14:51;;;;;;;;;12.00;11.33;;;;;26.22;33.00;103485.78;5095559;27;45470;-75
2023/02/10 15:17:21;;;;;;;;;12.67;11.00;;;;;26.28;32.81;103479.03;5088933;27;45547;-74
2023/02/10 15:19:56;;;;;;;;;14.00;10.33;;;;;26.34;33.24;103481.25;5087827;27;45389;-74
2023/02/10 15:22:43;;;;;;;;;11.67;11.33;;;;;26.37;33.15;103481.03;5083025;27;45454;-73
2023/02/10 15:25:24;;;;;;;;;10.00;9.67;;;;;26.40;32.66;103486.22;5078286;27;45667;-73
2023/02/10 15:27:49;;;;;;;;;10.67;10.00;;;;;26.41;32.90;103487.09;5096753;27;45418;-74
2023/02/10 15:30:20;;;;;;;;;12.00;10.67;;;;;26.42;32.83;103484.25;5090566;27;45473;-73
2023/02/10 15:32:50;;;;;;;;;14.33;11.67;;;;;26.37;33.27;103478.31;5096274;27;45562;-74
2023/02/10 15:35:16;;;;;;;;;12.33;11.00;;;;;26.39;33.22;103487.22;5095850;27;45453;-79
2023/02/10 15:37:46;;;;;;;;;12.33;11.67;;;;;26.36;32.92;103483.88;5098398;27;45341;-75
2023/02/10 15:40:23;;;;;;;;;11.00;9.00;;;;;26.34;33.06;103484.00;5108752;27;45441;-75
2023/02/10 15:43:04;;;;;;;;;9.00;9.00;;;;;26.29;33.37;103481.63;5093260;27;45575;-74
2023/02/10 15:45:29;;;;;;;;;10.00;10.00;;;;;26.26;32.79;103478.28;5099121;27;45449;-75
2023/02/10 15:48:10;;;;;;;;;15.00;13.00;;;;;26.24;33.34;103483.81;5108154;27;46027;-76
2023/02/10 15:50:36;;;;;;;;;11.33;11.00;;;;;26.23;33.33;103489.41;5113783;27;45365;-74
2023/02/10 15:53:04;;;;;;;;;13.00;8.67;;;;;26.20;33.20;103476.88;5093755;27;45747;-74
2023/02/10 15:55:36;;;;;;;;;14.67;10.33;;;;;26.22;32.90;103483.06;5096701;27;45598;-75
2023/02/10 15:58:03;;;;;;;;;12.00;12.00;;;;;26.21;33.17;103486.78;5098394;27;46245;-74
2023/02/10 16:00:31;;;;;;;;;10.00;10.00;;;;;26.21;33.12;103494.06;5096600;27;45495;-74
2023/02/10 16:02:56;;;;;;;;;11.67;10.67;;;;;26.19;33.00;103480.56;5092929;27;45715;-76
2023/02/10 16:05:23;;;;;;;;;9.00;9.00;;;;;26.18;33.08;103478.84;5097182;27;45469;-74
2023/02/10 16:07:50;;;;;;;;;9.00;9.00;;;;;26.21;33.35;103483.19;5096260;27;45379;-75
2023/02/10 16:10:20;;;;;;;;;10.00;10.00;;;;;26.23;33.39;103482.06;5077684;27;45757;-74
2023/02/10 16:12:45;;;;;;;;;9.33;8.00;;;;;26.26;33.27;103481.88;5088001;27;45728;-74
2023/02/10 16:15:15;;;;;;;;;12.00;12.00;;;;;26.33;33.06;103484.97;5101344;27;45657;-73
2023/02/10 16:17:44;;;;;;;;;12.00;11.00;;;;;26.38;33.10;103471.88;5094526;27;45513;-73
2023/02/10 16:20:31;;;;;;;;;7.00;7.00;;;;;26.44;33.08;103478.66;5112589;27;45416;-74
2023/02/10 16:22:57;;;;;;;;;10.33;10.00;;;;;26.45;33.38;103469.53;5087856;27;45521;-78
2023/02/10 16:25:25;;;;;;;;;8.67;8.67;;;;;26.51;33.34;103471.75;5090664;27;45413;-75
2023/02/10 16:27:52;;;;;;;;;9.00;8.00;;;;;26.50;32.93;103461.84;5106189;27;45993;-74
2023/02/10 16:30:21;;;;;;;;;8.00;8.00;;;;;26.58;33.04;103466.69;5102290;27;45476;-74
2023/02/10 16:32:47;;;;;;;;;10.33;10.00;;;;;26.60;33.17;103464.69;5096098;27;45507;-74
2023/02/10 16:35:13;;;;;;;;;10.00;9.33;;;;;26.62;33.00;103472.72;5106491;27;45455;-74
2023/02/10 16:37:39;;;;;;;;;10.00;7.67;;;;;26.62;33.19;103476.34;5097807;27;45429;-73
2023/02/10 16:40:05;;;;;;;;;11.00;9.67;;;;;26.62;33.32;103475.47;5101923;27;45487;-73
2023/02/10 16:42:31;;;;;;;;;13.33;12.00;;;;;26.56;33.16;103471.38;5088283;27;45527;-74
2023/02/10 16:44:56;;;;;;;;;11.67;9.67;;;;;26.48;32.79;103471.97;5095227;27;45715;-78
2023/02/10 16:47:21;;;;;;;;;16.33;13.00;;;;;26.41;32.89;103478.94;5098272;27;46772;-77
2023/02/10 16:49:48;;;;;;;;;15.00;11.67;;;;;26.28;33.02;103462.69;5094348;27;45500;-76
2023/02/10 16:52:14;;;;;;;;;12.33;12.00;;;;;26.26;32.54;103470.97;5115545;27;45872;-77
2023/02/10 16:54:40;;;;;;;;;10.67;10.67;;;;;26.21;32.90;103470.44;5094860;27;45484;-77
2023/02/10 16:57:06;;;;;;;;;14.00;13.33;;;;;26.14;32.90;103483.66;5096387;27;45980;-77
2023/02/10 16:59:32;;;;;;;;;12.33;11.00;;;;;26.05;32.57;103478.94;5095208;27;45571;-77
2023/02/10 17:01:57;;;;;;;;;12.67;11.00;;;;;26.01;32.05;103477.44;5096361;27;45573;-77
2023/02/10 17:04:23;;;;;;;;;10.00;10.00;;;;;25.98;32.86;103467.66;5095085;27;45372;-77
2023/02/10 17:06:51;;;;;;;;;15.33;12.67;;;;;25.95;32.49;103465.19;5095761;27;45462;-77
2023/02/10 17:09:22;;;;;;;;;11.67;11.67;;;;;25.91;32.24;103466.41;5095738;27;45476;-77
2023/02/10 17:11:48;;;;;;;;;11.67;11.67;;;;;25.85;32.40;103470.47;5094953;27;45518;-77
2023/02/10 17:14:14;;;;;;;;;10.67;10.00;;;;;25.78;32.35;103471.94;5095744;27;45441;-77
2023/02/10 17:16:45;;;;;;;;;12.33;12.33;;;;;25.74;32.32;103478.59;5092550;27;46156;-77
2023/02/10 17:19:12;;;;;;;;;19.67;15.33;;;;;25.72;32.22;103480.56;5078467;27;45437;-76
2023/02/10 17:21:38;;;;;;;;;16.67;13.33;;;;;25.67;32.61;103472.78;5095546;27;45383;-75
2023/02/10 17:24:03;;;;;;;;;11.33;11.33;;;;;25.70;32.25;103488.84;5094227;27;45518;-76
2023/02/10 17:26:29;;;;;;;;;11.67;11.00;;;;;25.70;32.51;103488.84;5095920;27;45524;-76
2023/02/10 17:28:54;;;;;;;;;12.67;11.33;;;;;25.60;32.07;103471.50;5093744;27;45508;-76
2023/02/10 17:31:21;;;;;;;;;10.67;10.67;;;;;25.72;32.42;103486.00;5095633;27;45572;-75
2023/02/10 17:33:50;;;;;;;;;14.00;14.00;;;;;25.74;32.44;103484.91;5085904;27;45304;-74
2023/02/10 17:36:17;;;;;;;;;13.00;13.00;;;;;25.75;32.29;103488.50;5090129;27;45541;-77
2023/02/10 17:38:47;;;;;;;;;15.33;11.00;;;;;25.74;32.38;103487.63;5089283;27;45498;-74
2023/02/10 17:41:13;;;;;;;;;13.00;12.00;;;;;25.72;32.16;103495.03;5084330;27;45541;-72
2023/02/10 17:43:39;;;;;;;;;12.67;12.00;;;;;25.68;32.80;103496.25;5091397;27;45494;-74
